createdAt,value
2022-09-02T00:01:24.348Z,100417.00
2022-09-02T00:03:55.077Z,100414.53
2022-09-02T00:06:21.605Z,100413.72
2022-09-02T00:08:48.012Z,100419.59
2022-09-02T00:11:17.327Z,100395.34
2022-09-02T00:13:44.936Z,100412.41
2022-09-02T00:16:12.054Z,100405.59
2022-09-02T00:18:40.009Z,100409.13
2022-09-02T00:21:13.534Z,100389.94
2022-09-02T00:23:42.068Z,100407.00
2022-09-02T00:26:08.574Z,100402.44
2022-09-02T00:28:35.365Z,100404.78
2022-09-02T00:31:02.264Z,100396.06
2022-09-02T00:33:28.888Z,100406.28
2022-09-02T00:35:55.460Z,100387.03
2022-09-02T00:38:22.058Z,100390.88
2022-09-02T00:40:50.210Z,100397.13
2022-09-02T00:43:38.508Z,100396.91
2022-09-02T00:46:05.912Z,100391.50
2022-09-02T00:48:33.017Z,100388.69
2022-09-02T00:50:59.774Z,100394.91
2022-09-02T00:53:26.603Z,100393.13
2022-09-02T00:55:52.968Z,100393.97
2022-09-02T00:58:24.760Z,100382.53
2022-09-02T01:00:56.626Z,100377.28
2022-09-02T01:03:25.976Z,100380.31
2022-09-02T01:05:53.921Z,100389.84
2022-09-02T01:08:27.327Z,100390.28
2022-09-02T01:10:57.840Z,100388.09
2022-09-02T01:13:29.850Z,100382.69
2022-09-02T01:16:02.355Z,100386.66
2022-09-02T01:18:30.981Z,100390.91
2022-09-02T01:21:00.273Z,100383.03
2022-09-02T01:23:29.488Z,100368.81
2022-09-02T01:26:00.528Z,100387.13
2022-09-02T01:28:26.902Z,100390.91
2022-09-02T01:30:54.767Z,100387.00
2022-09-02T01:33:23.207Z,100389.13
2022-09-02T01:35:52.809Z,100387.50
2022-09-02T01:38:21.178Z,100360.09
2022-09-02T01:40:47.943Z,100375.25
2022-09-02T01:43:21.193Z,100376.56
2022-09-02T01:45:49.479Z,100375.72
2022-09-02T01:48:21.264Z,100375.34
2022-09-02T01:50:52.255Z,100371.63
2022-09-02T01:53:18.746Z,100379.13
2022-09-02T01:55:45.389Z,100372.06
2022-09-02T01:58:11.908Z,100369.81
2022-09-02T02:00:38.316Z,100369.25
2022-09-02T02:03:04.716Z,100369.47
2022-09-02T02:05:31.361Z,100364.66
2022-09-02T02:07:57.766Z,100366.53
2022-09-02T02:10:24.373Z,100352.78
2022-09-02T02:12:51.580Z,100362.19
2022-09-02T02:15:19.896Z,100370.53
2022-09-02T02:17:46.924Z,100343.75
2022-09-02T02:20:15.961Z,100365.03
2022-09-02T02:22:43.702Z,100362.53
2022-09-02T02:25:11.267Z,100366.06
2022-09-02T02:27:37.856Z,100372.72
2022-09-02T02:30:07.410Z,100370.75
2022-09-02T02:32:34.205Z,100358.03
2022-09-02T02:35:00.604Z,100376.25
2022-09-02T02:37:27.028Z,100371.06
2022-09-02T02:39:53.979Z,100364.78
2022-09-02T02:42:20.900Z,100362.09
2022-09-02T02:44:47.286Z,100376.19
2022-09-02T02:47:13.822Z,100373.13
2022-09-02T02:49:42.275Z,100373.22
2022-09-02T02:52:10.430Z,100362.59
2022-09-02T02:54:37.173Z,100376.47
2022-09-02T02:57:04.540Z,100367.19
2022-09-02T02:59:30.983Z,100375.06
2022-09-02T03:01:57.704Z,100367.63
2022-09-02T03:04:24.431Z,100374.09
2022-09-02T03:06:51.200Z,100371.03
2022-09-02T03:09:17.985Z,100364.66
2022-09-02T03:11:44.359Z,100373.47
2022-09-02T03:14:10.698Z,100375.94
2022-09-02T03:16:37.430Z,100367.72
2022-09-02T03:19:03.917Z,100373.13
2022-09-02T03:21:30.317Z,100369.38
2022-09-02T03:24:05.585Z,100352.44
2022-09-02T03:26:32.382Z,100363.25
2022-09-02T03:28:59.482Z,100361.59
2022-09-02T03:31:27.793Z,100360.31
2022-09-02T03:33:54.800Z,100368.88
2022-09-02T03:36:23.796Z,100361.81
2022-09-02T03:38:50.519Z,100363.91
2022-09-02T03:41:16.929Z,100357.72
2022-09-02T03:43:43.333Z,100361.44
2022-09-02T03:46:10.139Z,100357.56
2022-09-02T03:48:36.667Z,100356.34
2022-09-02T03:51:03.542Z,100359.75
2022-09-02T03:53:29.965Z,100357.06
2022-09-02T03:55:56.318Z,100356.00
2022-09-02T03:58:25.608Z,100351.28
2022-09-02T04:00:53.621Z,100359.03
2022-09-02T04:03:20.672Z,100344.50
2022-09-02T04:05:49.486Z,100362.16
2022-09-02T04:08:16.445Z,100357.00
2022-09-02T04:10:43.128Z,100355.81
2022-09-02T04:13:09.569Z,100350.28
2022-09-02T04:15:42.970Z,100352.81
2022-09-02T04:18:09.701Z,100351.38
2022-09-02T04:20:39.561Z,100353.94
2022-09-02T04:23:06.439Z,100349.34
2022-09-02T04:25:33.129Z,100354.16
2022-09-02T04:28:00.177Z,100350.63
2022-09-02T04:30:26.849Z,100348.38
2022-09-02T04:32:53.556Z,100353.56
2022-09-02T04:35:20.022Z,100353.09
2022-09-02T04:37:48.938Z,100349.13
2022-09-02T04:40:15.814Z,100354.75
2022-09-02T04:42:42.305Z,100353.09
2022-09-02T04:45:09.293Z,100346.91
2022-09-02T04:47:35.732Z,100358.13
2022-09-02T04:50:02.129Z,100354.38
2022-09-02T04:52:28.482Z,100357.44
2022-09-02T04:54:54.905Z,100354.75
2022-09-02T04:57:21.285Z,100356.19
2022-09-02T04:59:47.783Z,100351.00
2022-09-02T05:02:14.277Z,100355.81
2022-09-02T05:04:40.877Z,100351.44
2022-09-02T05:07:07.341Z,100356.25
2022-09-02T05:09:33.776Z,100358.34
2022-09-02T05:12:04.258Z,100347.78
2022-09-02T05:14:30.967Z,100359.97
2022-09-02T05:16:57.833Z,100352.50
2022-09-02T05:19:24.297Z,100355.59
2022-09-02T05:21:56.034Z,100348.31
2022-09-02T05:24:26.460Z,100347.88
2022-09-02T05:26:53.413Z,100353.47
2022-09-02T05:29:20.521Z,100344.78
2022-09-02T05:31:48.782Z,100355.97
2022-09-02T05:34:16.312Z,100350.56
2022-09-02T05:36:42.732Z,100347.41
2022-09-02T05:39:09.364Z,100354.28
2022-09-02T05:41:36.077Z,100350.72
2022-09-02T05:44:03.937Z,100349.66
2022-09-02T05:46:30.846Z,100346.44
2022-09-02T05:49:07.240Z,100347.25
2022-09-02T05:51:40.927Z,100344.09
2022-09-02T05:54:09.391Z,100346.84
2022-09-02T05:56:38.201Z,100351.34
2022-09-02T05:59:07.038Z,100350.44
2022-09-02T06:01:34.553Z,100351.63
2022-09-02T06:04:02.295Z,100351.78
2022-09-02T06:06:30.194Z,100353.78
2022-09-02T06:08:56.657Z,100362.47
2022-09-02T06:11:23.417Z,100356.16
2022-09-02T06:13:49.869Z,100355.72
2022-09-02T06:16:19.289Z,100350.66
2022-09-02T06:18:47.352Z,100350.34
2022-09-02T06:21:14.480Z,100360.22
2022-09-02T06:23:41.173Z,100348.53
2022-09-02T06:26:09.968Z,100343.03
2022-09-02T06:28:36.933Z,100338.34
2022-09-02T06:31:23.028Z,100322.81
2022-09-02T06:33:53.088Z,100355.63
2022-09-02T06:36:21.315Z,100349.03
2022-09-02T06:38:50.591Z,100357.88
2022-09-02T06:41:23.115Z,100353.19
2022-09-02T06:43:50.629Z,100349.28
2022-09-02T06:46:20.170Z,100356.47
2022-09-02T06:48:48.721Z,100350.94
2022-09-02T06:51:20.444Z,100364.34
2022-09-02T06:53:46.857Z,100352.34
2022-09-02T06:56:13.441Z,100356.34
2022-09-02T06:58:39.927Z,100358.47
2022-09-02T07:01:07.488Z,100364.34
2022-09-02T07:03:52.957Z,100362.56
2022-09-02T07:06:19.788Z,100362.09
2022-09-02T07:08:46.670Z,100358.09
2022-09-02T07:11:19.367Z,100354.09
2022-09-02T07:13:46.087Z,100357.50
2022-09-02T07:16:13.181Z,100347.50
2022-09-02T07:18:44.901Z,100331.38
2022-09-02T07:21:13.491Z,100350.91
2022-09-02T07:23:41.177Z,100345.66
2022-09-02T07:26:17.485Z,100321.16
2022-09-02T07:28:43.905Z,100343.06
2022-09-02T07:31:11.271Z,100338.50
2022-09-02T07:33:38.045Z,100341.50
2022-09-02T07:36:11.001Z,100334.34
2022-09-02T07:38:40.369Z,100335.34
2022-09-02T07:41:09.596Z,100308.31
2022-09-02T07:43:37.633Z,100337.97
2022-09-02T07:46:05.898Z,100332.06
2022-09-02T07:48:32.461Z,100335.97
2022-09-02T07:50:59.137Z,100332.34
2022-09-02T07:53:27.009Z,100334.13
2022-09-02T07:55:53.501Z,100337.47
2022-09-02T07:58:22.284Z,100340.09
2022-09-02T08:00:49.205Z,100307.16
2022-09-02T08:03:16.067Z,100336.53
2022-09-02T08:05:44.897Z,100335.38
2022-09-02T08:08:11.339Z,100334.81
2022-09-02T08:10:38.528Z,100295.63
2022-09-02T08:13:06.702Z,100337.94
2022-09-02T08:15:35.899Z,100332.03
2022-09-02T08:18:03.283Z,100335.34
2022-09-02T08:20:30.545Z,100341.69
2022-09-02T08:23:10.913Z,100340.38
2022-09-02T08:25:39.427Z,100337.69
2022-09-02T08:28:05.847Z,100334.81
2022-09-02T08:30:32.736Z,100323.41
2022-09-02T08:32:59.523Z,100322.94
2022-09-02T08:35:26.464Z,100319.69
2022-09-02T08:37:52.936Z,100326.53
2022-09-02T08:40:22.743Z,100323.03
2022-09-02T08:42:54.303Z,100328.00
2022-09-02T08:45:37.682Z,100327.25
2022-09-02T08:48:21.236Z,100322.44
2022-09-02T08:50:52.673Z,100320.09
2022-09-02T08:53:40.329Z,100314.47
2022-09-02T08:56:11.529Z,100311.78
2022-09-02T08:58:45.017Z,100297.63
2022-09-02T09:01:35.664Z,100319.16
2022-09-02T09:04:33.238Z,100310.44
2022-09-02T09:07:18.100Z,100318.00
2022-09-02T09:10:06.114Z,100320.94
2022-09-02T09:12:53.997Z,100320.03
2022-09-02T09:15:53.018Z,100320.97
2022-09-02T09:18:25.545Z,100211.41
2022-09-02T09:20:51.917Z,100303.81
2022-09-02T09:23:34.016Z,100303.16
2022-09-02T09:26:10.093Z,100305.81
2022-09-02T09:28:55.996Z,100289.28
2022-09-02T09:31:31.212Z,100287.47
2022-09-02T09:34:12.686Z,100283.56
2022-09-02T09:36:39.508Z,100286.41
2022-09-02T09:39:18.149Z,100300.31
2022-09-02T09:41:45.937Z,100280.34
2022-09-02T09:44:34.283Z,100279.06
2022-09-02T09:47:01.977Z,100290.34
2022-09-02T09:49:29.445Z,100282.13
2022-09-02T09:51:56.310Z,100284.50
2022-09-02T09:54:26.903Z,100286.03
2022-09-02T09:56:55.058Z,100289.34
2022-09-02T09:59:55.939Z,100288.56
2022-09-02T10:02:25.635Z,100287.34
2022-09-02T10:04:54.060Z,100285.56
2022-09-02T10:07:35.636Z,100272.22
2022-09-02T10:10:21.261Z,100270.00
2022-09-02T10:12:51.148Z,100274.34
2022-09-02T10:15:28.414Z,100272.41
2022-09-02T10:18:14.643Z,100245.59
2022-09-02T10:21:16.318Z,100278.47
2022-09-02T10:24:10.809Z,100273.88
2022-09-02T10:26:45.122Z,100280.06
2022-09-02T10:29:26.344Z,100282.66
2022-09-02T10:32:00.509Z,100272.03
2022-09-02T10:34:32.678Z,100266.75
2022-09-02T10:37:17.920Z,100262.84
2022-09-02T10:40:00.229Z,100259.78
2022-09-02T10:42:54.365Z,100254.03
2022-09-02T10:45:45.157Z,100248.41
2022-09-02T10:48:35.388Z,100244.03
2022-09-02T10:51:15.621Z,100253.25
2022-09-02T10:53:59.715Z,100251.22
2022-09-02T10:56:35.795Z,100250.91
2022-09-02T10:59:20.524Z,100243.84
2022-09-02T11:01:55.038Z,100232.53
2022-09-02T11:04:43.056Z,100247.94
2022-09-02T11:07:17.104Z,100247.97
2022-09-02T11:09:54.556Z,100241.50
2022-09-02T11:12:32.821Z,100246.47
2022-09-02T11:15:31.485Z,100238.31
2022-09-02T11:20:48.332Z,100235.38
2022-09-02T11:23:37.908Z,100226.84
2022-09-02T11:26:38.097Z,100223.75
2022-09-02T11:29:32.964Z,100232.69
2022-09-02T11:32:10.801Z,100223.16
2022-09-02T11:34:45.140Z,100216.16
2022-09-02T11:37:24.407Z,100214.00
2022-09-02T11:40:17.232Z,100221.19
2022-09-02T11:43:10.108Z,100210.78
2022-09-02T11:45:53.952Z,100206.63
2022-09-02T11:48:29.408Z,100207.03
2022-09-02T11:50:55.746Z,100215.88
2022-09-02T11:53:30.561Z,100210.50
2022-09-02T11:56:05.944Z,100188.06
2022-09-02T11:58:34.259Z,100204.00
2022-09-02T12:01:24.454Z,100199.91
2022-09-02T12:04:56.083Z,100198.03
2022-09-02T12:07:10.266Z,100193.72
2022-09-02T12:09:47.771Z,100202.34
2022-09-02T12:12:36.354Z,100207.25
2022-09-02T12:15:06.322Z,100194.63
2022-09-02T12:17:51.780Z,100188.75
2022-09-02T12:20:36.439Z,100191.31
2022-09-02T12:23:03.248Z,100190.09
2022-09-02T12:25:34.083Z,100185.63
2022-09-02T12:28:26.520Z,100187.59
2022-09-02T12:31:05.408Z,100179.84
2022-09-02T12:33:33.347Z,100177.81
2022-09-02T12:36:00.976Z,100181.34
2022-09-02T12:38:41.764Z,100160.44
2022-09-02T12:41:13.270Z,100178.75
2022-09-02T12:43:46.168Z,100166.06
2022-09-02T12:46:18.158Z,100166.25
2022-09-02T12:49:23.065Z,100163.88
2022-09-02T12:52:02.236Z,100163.94
2022-09-02T12:54:48.941Z,100156.16
2022-09-02T12:57:19.123Z,100153.22
2022-09-02T12:59:47.415Z,100144.59
2022-09-02T13:02:51.917Z,100145.03
2022-09-02T13:05:35.714Z,100145.41
2022-09-02T13:08:19.285Z,100148.31
2022-09-02T13:10:58.130Z,100144.75
2022-09-02T13:13:33.664Z,100148.81
2022-09-02T13:16:18.789Z,100139.22
2022-09-02T13:19:47.803Z,100135.03
2022-09-02T13:22:38.364Z,100137.63
2022-09-02T13:25:41.827Z,100133.91
2022-09-02T13:28:39.867Z,100137.16
2022-09-02T13:31:23.669Z,100125.81
2022-09-02T13:34:14.460Z,100120.44
2022-09-02T13:36:43.546Z,100108.63
2022-09-02T13:39:18.194Z,100113.81
2022-09-02T13:41:45.321Z,100113.50
2022-09-02T13:44:26.337Z,100106.34
2022-09-02T13:47:12.835Z,100102.97
2022-09-02T13:49:41.828Z,100104.06
2022-09-02T13:52:16.885Z,100100.53
2022-09-02T13:54:47.409Z,100092.56
2022-09-02T13:57:19.982Z,100094.16
2022-09-02T13:59:49.512Z,100087.22
2022-09-02T14:02:36.754Z,100089.97
2022-09-02T14:05:13.705Z,100071.34
2022-09-02T14:07:44.620Z,100077.31
2022-09-02T14:10:18.196Z,100077.31
2022-09-02T14:12:45.229Z,100070.81
2022-09-02T14:15:14.784Z,100073.34
2022-09-02T14:17:41.347Z,100064.06
2022-09-02T14:20:19.122Z,100054.28
2022-09-02T14:22:59.353Z,100068.78
2022-09-02T14:25:29.005Z,100057.31
2022-09-02T14:28:00.587Z,100048.84
2022-09-02T14:30:31.748Z,100065.13
2022-09-02T14:33:17.516Z,100059.31
2022-09-02T14:35:58.349Z,100051.19
2022-09-02T14:38:26.999Z,100047.91
2022-09-02T14:41:04.790Z,100043.94
2022-09-02T14:43:41.336Z,100031.81
2022-09-02T14:46:13.945Z,100042.03
2022-09-02T14:48:40.850Z,100049.03
2022-09-02T14:51:09.439Z,100034.81
2022-09-02T14:53:39.124Z,100044.03
2022-09-02T14:56:06.272Z,100020.56
2022-09-02T14:58:32.684Z,100028.00
2022-09-02T15:01:00.860Z,100032.84
2022-09-02T15:03:29.329Z,100033.78
2022-09-02T15:05:56.073Z,100026.63
2022-09-02T15:08:22.723Z,100033.25
2022-09-02T15:10:49.498Z,100032.63
2022-09-02T15:13:26.960Z,99997.59
2022-09-02T15:15:55.339Z,100029.63
2022-09-02T15:18:23.128Z,100022.63
2022-09-02T15:20:49.655Z,100019.25
2022-09-02T15:23:16.595Z,100011.53
2022-09-02T15:25:42.973Z,100023.00
2022-09-02T15:28:10.936Z,100011.03
2022-09-02T15:30:37.457Z,100006.03
2022-09-02T15:33:05.657Z,100004.19
2022-09-02T15:35:34.169Z,100004.22
2022-09-02T15:38:04.656Z,99992.09
2022-09-02T15:40:31.990Z,100006.19
2022-09-02T15:42:59.920Z,100007.19
2022-09-02T15:45:27.885Z,100005.59
2022-09-02T15:47:58.074Z,100004.75
2022-09-02T15:50:24.806Z,100002.13
2022-09-02T15:52:53.874Z,100005.09
2022-09-02T15:55:24.909Z,100004.28
2022-09-02T15:57:55.442Z,100006.16
2022-09-02T16:00:21.894Z,99998.94
2022-09-02T16:02:48.410Z,99997.53
2022-09-02T16:05:15.450Z,100001.06
2022-09-02T16:07:41.853Z,99990.22
2022-09-02T16:10:09.137Z,99999.97
2022-09-02T16:12:35.988Z,99994.88
2022-09-02T16:15:02.340Z,99989.19
2022-09-02T16:17:28.769Z,99992.34
2022-09-02T16:19:55.179Z,99987.25
2022-09-02T16:22:21.604Z,99969.69
2022-09-02T16:24:47.945Z,99985.50
2022-09-02T16:27:14.327Z,99983.25
2022-09-02T16:29:41.660Z,99985.59
2022-09-02T16:32:24.564Z,99967.91
2022-09-02T16:34:55.600Z,99974.38
2022-09-02T16:37:21.944Z,99972.81
2022-09-02T16:39:48.315Z,99971.59
2022-09-02T16:42:14.895Z,99973.50
2022-09-02T16:44:41.352Z,99968.38
2022-09-02T16:47:07.829Z,99970.16
2022-09-02T16:49:34.884Z,99967.00
2022-09-02T16:52:01.297Z,99963.50
2022-09-02T16:54:32.467Z,99961.44
2022-09-02T16:57:01.332Z,99962.34
2022-09-02T16:59:28.168Z,99959.69
2022-09-02T17:01:54.751Z,99960.34
2022-09-02T17:04:21.140Z,99954.22
2022-09-02T17:06:47.675Z,99962.28
2022-09-02T17:09:16.201Z,99956.44
2022-09-02T17:11:45.043Z,99958.47
2022-09-02T17:14:16.759Z,99958.31
2022-09-02T17:16:48.930Z,99939.13
2022-09-02T17:19:21.306Z,99953.53
2022-09-02T17:21:50.725Z,99960.47
2022-09-02T17:24:19.502Z,99952.38
2022-09-02T17:26:50.576Z,99955.75
2022-09-02T17:29:46.914Z,99956.41
2022-09-02T17:32:06.816Z,99958.69
2022-09-02T17:34:34.294Z,99955.00
2022-09-02T17:37:00.711Z,99952.13
2022-09-02T17:39:27.305Z,99944.91
2022-09-02T17:41:59.528Z,99943.59
2022-09-02T17:44:33.338Z,99962.38
2022-09-02T17:46:59.904Z,99957.81
2022-09-02T17:49:26.422Z,99957.09
2022-09-02T17:51:52.830Z,99964.44
2022-09-02T17:54:19.295Z,99969.66
2022-09-02T17:57:21.529Z,99962.13
2022-09-02T18:00:09.255Z,99955.88
2022-09-02T18:02:35.589Z,99965.75
2022-09-02T18:05:14.516Z,99959.53
2022-09-02T18:07:56.874Z,99941.84
2022-09-02T18:10:23.248Z,99951.41
2022-09-02T18:12:49.640Z,99936.44
2022-09-02T18:15:18.358Z,99953.09
2022-09-02T18:17:52.080Z,99956.09
2022-09-02T18:20:43.526Z,99957.72
2022-09-02T18:23:34.466Z,99942.78
2022-09-02T18:26:12.778Z,99952.03
2022-09-02T18:28:50.488Z,99953.63
2022-09-02T18:31:41.455Z,99948.19
2022-09-02T18:34:21.881Z,99946.00
2022-09-02T18:37:08.673Z,99946.53
2022-09-02T18:40:02.970Z,99952.78
2022-09-02T18:42:47.313Z,99933.47
2022-09-02T18:45:25.253Z,99959.53
2022-09-02T18:47:59.977Z,99942.66
2022-09-02T18:50:52.263Z,99958.97
2022-09-02T18:53:23.356Z,99959.47
2022-09-02T18:55:52.096Z,99960.56
2022-09-02T18:58:34.050Z,99966.75
2022-09-02T19:01:06.918Z,99953.41
2022-09-02T19:03:37.268Z,99960.41
2022-09-02T19:06:07.925Z,99966.69
2022-09-02T19:08:34.901Z,99970.47
2022-09-02T19:11:09.310Z,99962.56
2022-09-02T19:13:55.473Z,99973.13
2022-09-02T19:16:26.421Z,99952.94
2022-09-02T19:18:53.117Z,99958.63
2022-09-02T19:21:31.540Z,99975.78
2022-09-02T19:23:58.008Z,99967.34
2022-09-02T19:26:24.497Z,99970.63
2022-09-02T19:28:51.666Z,99956.44
2022-09-02T19:31:21.685Z,99974.38
2022-09-02T19:33:52.557Z,99970.84
2022-09-02T19:36:26.334Z,99977.88
2022-09-02T19:38:57.499Z,99951.44
2022-09-02T19:41:25.698Z,99971.56
2022-09-02T19:43:53.923Z,99969.09
2022-09-02T19:47:04.218Z,99963.09
2022-09-02T19:49:09.079Z,99964.44
2022-09-02T19:51:35.419Z,99963.31
2022-09-02T19:54:03.234Z,99946.13
2022-09-02T19:56:29.661Z,99955.66
2022-09-02T19:58:56.233Z,99963.50
2022-09-02T20:01:22.764Z,99956.66
2022-09-02T20:03:49.144Z,99959.91
2022-09-02T20:06:15.477Z,99962.59
2022-09-02T20:08:42.048Z,99942.44
2022-09-02T20:11:08.456Z,99954.13
2022-09-02T20:13:40.746Z,99938.28
2022-09-02T20:16:20.176Z,99940.75
2022-09-02T20:18:48.243Z,99947.31
2022-09-02T20:21:28.863Z,99955.94
2022-09-02T20:24:03.221Z,99957.56
2022-09-02T20:26:34.954Z,99949.13
2022-09-02T20:29:27.758Z,99944.22
2022-09-02T20:32:12.220Z,99955.88
2022-09-02T20:34:41.657Z,99949.88
2022-09-02T20:37:26.790Z,99950.94
2022-09-02T20:40:34.662Z,99946.56
2022-09-02T20:43:25.230Z,99944.88
2022-09-02T20:46:01.790Z,99945.91
2022-09-02T20:49:06.524Z,99944.72
2022-09-02T20:51:59.472Z,99943.59
2022-09-02T20:54:53.025Z,99942.72
2022-09-02T20:57:40.566Z,99930.47
2022-09-02T21:00:10.009Z,99951.44
2022-09-02T21:02:48.985Z,99945.97
2022-09-02T21:05:24.760Z,99944.06
2022-09-02T21:07:59.481Z,99920.59
2022-09-02T21:10:38.837Z,99938.13
2022-09-02T21:13:17.120Z,99940.00
2022-09-02T21:15:55.913Z,99941.09
2022-09-02T21:18:44.207Z,99942.69
2022-09-02T21:21:36.922Z,99930.31
2022-09-02T21:24:08.234Z,99928.91
2022-09-02T21:27:03.549Z,99932.16
2022-09-02T21:30:02.155Z,99951.81
2022-09-02T21:32:35.013Z,99943.69
2022-09-02T21:35:19.742Z,99949.66
2022-09-02T21:37:47.793Z,99951.06
2022-09-02T21:40:19.785Z,99937.28
2022-09-02T21:42:54.348Z,99935.13
2022-09-02T21:45:29.096Z,99940.97
2022-09-02T21:48:34.926Z,99937.72
2022-09-02T21:51:14.788Z,99939.59
2022-09-02T21:53:56.865Z,99939.06
2022-09-02T21:56:34.416Z,99933.34
2022-09-02T21:59:10.926Z,99931.41
2022-09-02T22:01:51.040Z,99928.47
2022-09-02T22:04:45.426Z,99933.53
2022-09-02T22:07:22.461Z,99937.59
2022-09-02T22:10:40.438Z,99926.19
2022-09-02T22:13:07.907Z,99928.53
2022-09-02T22:16:02.723Z,99927.69
2022-09-02T22:18:49.628Z,99926.06
2022-09-02T22:21:48.099Z,99932.47
2022-09-02T22:24:19.844Z,99927.31
2022-09-02T22:26:58.612Z,99914.56
2022-09-02T22:29:57.446Z,99921.59
2022-09-02T22:32:28.250Z,99923.72
2022-09-02T22:35:24.786Z,99919.56
2022-09-02T22:38:10.165Z,99920.06
2022-09-02T22:40:44.590Z,99905.31
2022-09-02T22:43:14.217Z,99920.88
2022-09-02T22:46:09.811Z,99925.66
2022-09-02T22:49:00.672Z,99914.28
2022-09-02T22:51:52.141Z,99916.13
2022-09-02T22:54:18.592Z,99914.19
2022-09-02T22:57:19.628Z,99921.22
2022-09-02T23:00:04.197Z,99909.28
2022-09-02T23:02:39.139Z,99917.09
2022-09-02T23:05:43.877Z,99915.09
2022-09-02T23:08:15.551Z,99905.28
2022-09-02T23:10:54.268Z,99917.47
2022-09-02T23:13:40.859Z,99908.53
2022-09-02T23:16:27.043Z,99907.97
2022-09-02T23:19:19.489Z,99910.38
2022-09-02T23:22:12.023Z,99902.19
2022-09-02T23:25:30.697Z,99907.81
2022-09-02T23:28:10.043Z,99907.81
2022-09-02T23:30:45.869Z,99874.84
2022-09-02T23:33:38.428Z,99905.38
2022-09-02T23:36:47.245Z,99900.69
2022-09-02T23:39:30.102Z,99894.16
2022-09-02T23:42:02.581Z,99893.06
2022-09-02T23:44:29.682Z,99896.84
2022-09-02T23:47:22.425Z,99875.81
2022-09-02T23:50:15.617Z,99889.47
2022-09-02T23:52:50.221Z,99898.06
2022-09-02T23:55:22.270Z,99892.34
2022-09-02T23:58:32.766Z,99902.03
